sensor_id;sensor_type;location;lat;lon;timestamp;temperature;humidity
4376;DHT22;2202;50.866;12.750;2023-02-01T00:01:46;3.50;91.60
4376;DHT22;2202;50.866;12.750;2023-02-01T00:04:13;3.50;91.50
4376;DHT22;2202;50.866;12.750;2023-02-01T00:06:40;3.50;91.30
4376;DHT22;2202;50.866;12.750;2023-02-01T00:09:07;3.60;91.20
4376;DHT22;2202;50.866;12.750;2023-02-01T00:11:34;3.60;90.60
4376;DHT22;2202;50.866;12.750;2023-02-01T00:14:02;3.60;90.50
4376;DHT22;2202;50.866;12.750;2023-02-01T00:16:30;3.60;90.50
4376;DHT22;2202;50.866;12.750;2023-02-01T00:18:58;3.60;90.30
4376;DHT22;2202;50.866;12.750;2023-02-01T00:21:26;3.60;90.00
4376;DHT22;2202;50.866;12.750;2023-02-01T00:23:53;3.60;89.40
4376;DHT22;2202;50.866;12.750;2023-02-01T00:26:25;3.60;89.80
4376;DHT22;2202;50.866;12.750;2023-02-01T00:28:52;3.60;88.20
4376;DHT22;2202;50.866;12.750;2023-02-01T00:31:20;3.70;87.40
4376;DHT22;2202;50.866;12.750;2023-02-01T00:33:48;3.70;86.60
4376;DHT22;2202;50.866;12.750;2023-02-01T00:36:16;3.70;87.00
4376;DHT22;2202;50.866;12.750;2023-02-01T00:38:43;3.70;87.60
4376;DHT22;2202;50.866;12.750;2023-02-01T00:41:11;3.60;87.80
4376;DHT22;2202;50.866;12.750;2023-02-01T00:43:39;3.70;88.00
4376;DHT22;2202;50.866;12.750;2023-02-01T00:46:06;3.60;88.00
4376;DHT22;2202;50.866;12.750;2023-02-01T00:48:34;3.60;88.20
4376;DHT22;2202;50.866;12.750;2023-02-01T00:51:02;3.60;88.00
4376;DHT22;2202;50.866;12.750;2023-02-01T00:53:30;3.60;87.80
4376;DHT22;2202;50.866;12.750;2023-02-01T00:55:57;3.60;88.20
4376;DHT22;2202;50.866;12.750;2023-02-01T00:58:25;3.50;87.60
4376;DHT22;2202;50.866;12.750;2023-02-01T01:01:00;3.50;87.80
4376;DHT22;2202;50.866;12.750;2023-02-01T01:03:27;3.50;87.60
4376;DHT22;2202;50.866;12.750;2023-02-01T01:06:01;3.50;87.40
4376;DHT22;2202;50.866;12.750;2023-02-01T01:08:28;3.50;87.60
4376;DHT22;2202;50.866;12.750;2023-02-01T01:10:55;3.50;87.20
4376;DHT22;2202;50.866;12.750;2023-02-01T01:13:22;3.50;87.00
4376;DHT22;2202;50.866;12.750;2023-02-01T01:15:49;3.50;86.80
4376;DHT22;2202;50.866;12.750;2023-02-01T01:18:16;3.50;86.80
4376;DHT22;2202;50.866;12.750;2023-02-01T01:20:42;3.40;87.00
4376;DHT22;2202;50.866;12.750;2023-02-01T01:23:11;3.40;86.60
4376;DHT22;2202;50.866;12.750;2023-02-01T01:25:38;3.50;86.40
4376;DHT22;2202;50.866;12.750;2023-02-01T01:28:06;3.50;86.60
4376;DHT22;2202;50.866;12.750;2023-02-01T01:30:33;3.50;86.40
4376;DHT22;2202;50.866;12.750;2023-02-01T01:33:00;3.50;86.20
4376;DHT22;2202;50.866;12.750;2023-02-01T01:35:28;3.50;86.00
4376;DHT22;2202;50.866;12.750;2023-02-01T01:37:55;3.50;85.80
4376;DHT22;2202;50.866;12.750;2023-02-01T01:40:24;3.50;85.20
4376;DHT22;2202;50.866;12.750;2023-02-01T01:42:51;3.50;85.20
4376;DHT22;2202;50.866;12.750;2023-02-01T01:45:22;3.50;85.20
4376;DHT22;2202;50.866;12.750;2023-02-01T01:47:53;3.50;85.20
4376;DHT22;2202;50.866;12.750;2023-02-01T01:50:23;3.50;85.00
4376;DHT22;2202;50.866;12.750;2023-02-01T01:52:52;3.50;84.80
4376;DHT22;2202;50.866;12.750;2023-02-01T01:55:24;3.50;84.20
4376;DHT22;2202;50.866;12.750;2023-02-01T01:57:55;3.50;84.60
4376;DHT22;2202;50.866;12.750;2023-02-01T02:00:24;3.50;84.20
4376;DHT22;2202;50.866;12.750;2023-02-01T02:02:56;3.40;84.40
4376;DHT22;2202;50.866;12.750;2023-02-01T02:05:24;3.40;84.40
4376;DHT22;2202;50.866;12.750;2023-02-01T02:07:53;3.40;84.00
4376;DHT22;2202;50.866;12.750;2023-02-01T02:10:24;3.40;84.40
4376;DHT22;2202;50.866;12.750;2023-02-01T02:13:12;3.40;84.60
4376;DHT22;2202;50.866;12.750;2023-02-01T02:15:43;3.40;83.60
4376;DHT22;2202;50.866;12.750;2023-02-01T02:18:17;3.50;84.40
4376;DHT22;2202;50.866;12.750;2023-02-01T02:21:12;3.50;84.00
4376;DHT22;2202;50.866;12.750;2023-02-01T02:30:14;3.40;84.40
4376;DHT22;2202;50.866;12.750;2023-02-01T02:33:31;3.40;84.20
4376;DHT22;2202;50.866;12.750;2023-02-01T02:36:09;3.40;84.00
4376;DHT22;2202;50.866;12.750;2023-02-01T02:38:42;3.40;83.00
4376;DHT22;2202;50.866;12.750;2023-02-01T02:41:14;3.30;83.80
4376;DHT22;2202;50.866;12.750;2023-02-01T02:44:09;3.40;83.80
4376;DHT22;2202;50.866;12.750;2023-02-01T02:46:57;3.40;82.80
4376;DHT22;2202;50.866;12.750;2023-02-01T02:49:51;3.40;82.80
4376;DHT22;2202;50.866;12.750;2023-02-01T02:52:43;3.30;83.00
4376;DHT22;2202;50.866;12.750;2023-02-01T02:55:31;3.30;83.20
4376;DHT22;2202;50.866;12.750;2023-02-01T02:58:02;3.30;83.20
4376;DHT22;2202;50.866;12.750;2023-02-01T03:00:48;3.30;83.00
4376;DHT22;2202;50.866;12.750;2023-02-01T03:03:36;3.30;83.00
4376;DHT22;2202;50.866;12.750;2023-02-01T03:06:23;3.30;83.20
4376;DHT22;2202;50.866;12.750;2023-02-01T03:08:50;3.30;83.80
4376;DHT22;2202;50.866;12.750;2023-02-01T03:11:20;3.30;83.80
4376;DHT22;2202;50.866;12.750;2023-02-01T03:13:51;3.30;83.80
4376;DHT22;2202;50.866;12.750;2023-02-01T03:16:21;3.30;83.80
4376;DHT22;2202;50.866;12.750;2023-02-01T03:18:55;3.40;83.20
4376;DHT22;2202;50.866;12.750;2023-02-01T03:21:27;3.40;83.40
4376;DHT22;2202;50.866;12.750;2023-02-01T03:24:00;3.40;83.60
4376;DHT22;2202;50.866;12.750;2023-02-01T03:26:30;3.40;83.80
4376;DHT22;2202;50.866;12.750;2023-02-01T03:29:02;3.30;83.60
4376;DHT22;2202;50.866;12.750;2023-02-01T03:31:32;3.30;84.00
4376;DHT22;2202;50.866;12.750;2023-02-01T03:33:59;3.30;83.20
4376;DHT22;2202;50.866;12.750;2023-02-01T03:36:31;3.40;83.20
4376;DHT22;2202;50.866;12.750;2023-02-01T03:39:04;3.40;83.20
4376;DHT22;2202;50.866;12.750;2023-02-01T03:41:35;3.40;83.00
4376;DHT22;2202;50.866;12.750;2023-02-01T03:44:11;3.40;83.00
4376;DHT22;2202;50.866;12.750;2023-02-01T03:46:41;3.40;82.80
4376;DHT22;2202;50.866;12.750;2023-02-01T03:49:13;3.40;82.60
4376;DHT22;2202;50.866;12.750;2023-02-01T03:51:44;3.40;82.80
4376;DHT22;2202;50.866;12.750;2023-02-01T03:54:13;3.40;83.00
4376;DHT22;2202;50.866;12.750;2023-02-01T03:56:44;3.40;82.60
4376;DHT22;2202;50.866;12.750;2023-02-01T03:59:12;3.40;83.00
4376;DHT22;2202;50.866;12.750;2023-02-01T04:01:39;3.40;82.80
4376;DHT22;2202;50.866;12.750;2023-02-01T04:04:06;3.30;82.40
4376;DHT22;2202;50.866;12.750;2023-02-01T04:06:35;3.30;82.40
4376;DHT22;2202;50.866;12.750;2023-02-01T04:09:03;3.30;83.00
4376;DHT22;2202;50.866;12.750;2023-02-01T04:11:30;3.30;82.80
4376;DHT22;2202;50.866;12.750;2023-02-01T04:13:57;3.30;82.20
4376;DHT22;2202;50.866;12.750;2023-02-01T04:16:23;3.30;82.00
4376;DHT22;2202;50.866;12.750;2023-02-01T04:18:50;3.20;82.40
4376;DHT22;2202;50.866;12.750;2023-02-01T04:21:17;3.20;82.40
4376;DHT22;2202;50.866;12.750;2023-02-01T04:23:44;3.20;82.40
4376;DHT22;2202;50.866;12.750;2023-02-01T04:26:13;3.10;82.40
4376;DHT22;2202;50.866;12.750;2023-02-01T04:28:41;3.10;83.00
4376;DHT22;2202;50.866;12.750;2023-02-01T04:31:08;3.20;82.80
4376;DHT22;2202;50.866;12.750;2023-02-01T04:33:35;3.20;82.60
4376;DHT22;2202;50.866;12.750;2023-02-01T04:36:02;3.20;82.40
4376;DHT22;2202;50.866;12.750;2023-02-01T04:38:29;3.10;83.40
4376;DHT22;2202;50.866;12.750;2023-02-01T04:40:57;3.10;83.60
4376;DHT22;2202;50.866;12.750;2023-02-01T04:43:26;3.10;83.80
4376;DHT22;2202;50.866;12.750;2023-02-01T04:45:53;3.00;84.20
4376;DHT22;2202;50.866;12.750;2023-02-01T04:48:20;3.10;84.40
4376;DHT22;2202;50.866;12.750;2023-02-01T04:50:48;3.10;84.00
4376;DHT22;2202;50.866;12.750;2023-02-01T04:53:15;3.10;83.80
4376;DHT22;2202;50.866;12.750;2023-02-01T04:55:43;3.10;84.00
4376;DHT22;2202;50.866;12.750;2023-02-01T04:58:10;3.10;83.80
4376;DHT22;2202;50.866;12.750;2023-02-01T05:00:39;3.20;83.80
4376;DHT22;2202;50.866;12.750;2023-02-01T05:03:06;3.20;83.00
4376;DHT22;2202;50.866;12.750;2023-02-01T05:05:33;3.30;83.60
4376;DHT22;2202;50.866;12.750;2023-02-01T05:08:00;3.20;84.00
4376;DHT22;2202;50.866;12.750;2023-02-01T05:10:27;3.20;84.60
4376;DHT22;2202;50.866;12.750;2023-02-01T05:12:54;3.20;85.60
4376;DHT22;2202;50.866;12.750;2023-02-01T05:15:39;3.20;85.60
4376;DHT22;2202;50.866;12.750;2023-02-01T05:18:06;3.10;86.40
4376;DHT22;2202;50.866;12.750;2023-02-01T05:20:33;3.10;86.80
4376;DHT22;2202;50.866;12.750;2023-02-01T05:23:00;3.10;87.40
4376;DHT22;2202;50.866;12.750;2023-02-01T05:25:27;3.10;86.80
4376;DHT22;2202;50.866;12.750;2023-02-01T05:27:54;3.10;87.40
4376;DHT22;2202;50.866;12.750;2023-02-01T05:30:21;3.10;87.80
4376;DHT22;2202;50.866;12.750;2023-02-01T05:32:51;3.10;88.00
4376;DHT22;2202;50.866;12.750;2023-02-01T05:35:19;3.00;88.00
4376;DHT22;2202;50.866;12.750;2023-02-01T05:37:46;3.00;88.20
4376;DHT22;2202;50.866;12.750;2023-02-01T05:40:12;3.00;88.40
4376;DHT22;2202;50.866;12.750;2023-02-01T05:42:39;3.00;88.60
4376;DHT22;2202;50.866;12.750;2023-02-01T05:45:07;3.10;88.20
4376;DHT22;2202;50.866;12.750;2023-02-01T05:47:34;3.10;88.40
4376;DHT22;2202;50.866;12.750;2023-02-01T05:50:04;3.10;88.40
4376;DHT22;2202;50.866;12.750;2023-02-01T05:52:31;3.10;88.60
4376;DHT22;2202;50.866;12.750;2023-02-01T05:54:58;3.10;88.80
4376;DHT22;2202;50.866;12.750;2023-02-01T05:57:25;3.00;89.00
4376;DHT22;2202;50.866;12.750;2023-02-01T05:59:51;3.00;89.60
4376;DHT22;2202;50.866;12.750;2023-02-01T06:02:18;3.00;89.80
4376;DHT22;2202;50.866;12.750;2023-02-01T06:04:45;3.00;89.40
4376;DHT22;2202;50.866;12.750;2023-02-01T06:07:14;3.00;89.60
4376;DHT22;2202;50.866;12.750;2023-02-01T06:09:40;3.00;89.60
4376;DHT22;2202;50.866;12.750;2023-02-01T06:12:07;3.00;89.60
4376;DHT22;2202;50.866;12.750;2023-02-01T06:14:34;2.90;90.00
4376;DHT22;2202;50.866;12.750;2023-02-01T06:17:02;2.90;90.00
4376;DHT22;2202;50.866;12.750;2023-02-01T06:19:31;2.90;89.80
4376;DHT22;2202;50.866;12.750;2023-02-01T06:21:58;2.90;90.00
4376;DHT22;2202;50.866;12.750;2023-02-01T06:24:26;2.90;90.20
4376;DHT22;2202;50.866;12.750;2023-02-01T06:26:53;2.90;90.40
4376;DHT22;2202;50.866;12.750;2023-02-01T06:29:19;2.90;90.40
4376;DHT22;2202;50.866;12.750;2023-02-01T06:31:46;2.90;90.40
4376;DHT22;2202;50.866;12.750;2023-02-01T06:34:13;3.00;90.20
4376;DHT22;2202;50.866;12.750;2023-02-01T06:36:40;2.90;90.00
4376;DHT22;2202;50.866;12.750;2023-02-01T06:39:07;2.90;90.20
4376;DHT22;2202;50.866;12.750;2023-02-01T06:41:35;2.90;90.40
4376;DHT22;2202;50.866;12.750;2023-02-01T06:44:02;2.80;90.50
4376;DHT22;2202;50.866;12.750;2023-02-01T06:46:29;2.80;90.50
4376;DHT22;2202;50.866;12.750;2023-02-01T06:48:56;2.80;90.70
4376;DHT22;2202;50.866;12.750;2023-02-01T06:51:24;2.80;90.50
4376;DHT22;2202;50.866;12.750;2023-02-01T06:53:51;2.70;90.60
4376;DHT22;2202;50.866;12.750;2023-02-01T06:56:18;2.80;90.60
4376;DHT22;2202;50.866;12.750;2023-02-01T06:58:47;2.80;90.30
4376;DHT22;2202;50.866;12.750;2023-02-01T07:01:14;2.90;90.00
4376;DHT22;2202;50.866;12.750;2023-02-01T07:03:42;2.80;90.00
4376;DHT22;2202;50.866;12.750;2023-02-01T07:06:09;2.80;89.80
4376;DHT22;2202;50.866;12.750;2023-02-01T07:08:37;2.90;89.40
4376;DHT22;2202;50.866;12.750;2023-02-01T07:11:05;2.90;89.00
4376;DHT22;2202;50.866;12.750;2023-02-01T07:13:32;2.90;88.40
4376;DHT22;2202;50.866;12.750;2023-02-01T07:16:02;2.90;88.80
4376;DHT22;2202;50.866;12.750;2023-02-01T07:18:30;2.90;88.20
4376;DHT22;2202;50.866;12.750;2023-02-01T07:20:57;2.90;88.40
4376;DHT22;2202;50.866;12.750;2023-02-01T07:23:24;3.00;88.20
4376;DHT22;2202;50.866;12.750;2023-02-01T07:25:53;3.00;87.60
4376;DHT22;2202;50.866;12.750;2023-02-01T07:28:20;3.00;87.40
4376;DHT22;2202;50.866;12.750;2023-02-01T07:30:47;3.00;87.20
4376;DHT22;2202;50.866;12.750;2023-02-01T07:33:18;3.00;87.60
4376;DHT22;2202;50.866;12.750;2023-02-01T07:35:47;3.00;86.80
4376;DHT22;2202;50.866;12.750;2023-02-01T07:38:14;3.10;86.40
4376;DHT22;2202;50.866;12.750;2023-02-01T07:40:41;3.10;86.00
4376;DHT22;2202;50.866;12.750;2023-02-01T07:43:09;3.10;85.80
4376;DHT22;2202;50.866;12.750;2023-02-01T07:45:36;3.10;85.60
4376;DHT22;2202;50.866;12.750;2023-02-01T07:48:03;3.20;85.60
4376;DHT22;2202;50.866;12.750;2023-02-01T07:50:31;3.20;85.40
4376;DHT22;2202;50.866;12.750;2023-02-01T07:52:59;3.20;84.60
4376;DHT22;2202;50.866;12.750;2023-02-01T07:55:26;3.20;84.60
4376;DHT22;2202;50.866;12.750;2023-02-01T07:57:56;3.30;84.00
4376;DHT22;2202;50.866;12.750;2023-02-01T08:00:23;3.30;84.20
4376;DHT22;2202;50.866;12.750;2023-02-01T08:03:16;3.30;83.20
4376;DHT22;2202;50.866;12.750;2023-02-01T08:05:45;3.40;82.80
4376;DHT22;2202;50.866;12.750;2023-02-01T08:08:12;3.40;82.60
4376;DHT22;2202;50.866;12.750;2023-02-01T08:10:38;3.40;82.20
4376;DHT22;2202;50.866;12.750;2023-02-01T08:13:05;3.50;82.00
4376;DHT22;2202;50.866;12.750;2023-02-01T08:15:32;3.50;81.80
4376;DHT22;2202;50.866;12.750;2023-02-01T08:17:59;3.50;81.80
4376;DHT22;2202;50.866;12.750;2023-02-01T08:20:27;3.50;81.20
4376;DHT22;2202;50.866;12.750;2023-02-01T08:22:56;3.50;80.60
4376;DHT22;2202;50.866;12.750;2023-02-01T08:25:23;3.60;81.00
4376;DHT22;2202;50.866;12.750;2023-02-01T08:27:50;3.60;80.60
4376;DHT22;2202;50.866;12.750;2023-02-01T08:30:17;3.60;80.20
4376;DHT22;2202;50.866;12.750;2023-02-01T08:32:44;3.60;80.80
4376;DHT22;2202;50.866;12.750;2023-02-01T08:35:11;3.60;80.00
4376;DHT22;2202;50.866;12.750;2023-02-01T08:37:38;3.60;79.40
4376;DHT22;2202;50.866;12.750;2023-02-01T08:40:07;3.60;80.00
4376;DHT22;2202;50.866;12.750;2023-02-01T08:42:34;3.60;79.40
4376;DHT22;2202;50.866;12.750;2023-02-01T08:45:21;3.70;79.40
4376;DHT22;2202;50.866;12.750;2023-02-01T08:47:49;3.60;80.20
4376;DHT22;2202;50.866;12.750;2023-02-01T08:50:16;3.60;81.40
4376;DHT22;2202;50.866;12.750;2023-02-01T08:52:43;3.60;82.60
4376;DHT22;2202;50.866;12.750;2023-02-01T08:55:12;3.60;83.20
4376;DHT22;2202;50.866;12.750;2023-02-01T08:57:39;3.60;83.80
4376;DHT22;2202;50.866;12.750;2023-02-01T09:00:08;3.50;84.20
4376;DHT22;2202;50.866;12.750;2023-02-01T09:02:37;3.50;85.60
4376;DHT22;2202;50.866;12.750;2023-02-01T09:05:04;3.30;88.60
4376;DHT22;2202;50.866;12.750;2023-02-01T09:07:32;3.10;90.80
4376;DHT22;2202;50.866;12.750;2023-02-01T09:09:58;3.00;91.40
4376;DHT22;2202;50.866;12.750;2023-02-01T09:12:28;3.00;91.60
4376;DHT22;2202;50.866;12.750;2023-02-01T09:14:55;2.90;91.60
4376;DHT22;2202;50.866;12.750;2023-02-01T09:17:25;3.00;91.80
4376;DHT22;2202;50.866;12.750;2023-02-01T09:19:51;3.00;91.50
4376;DHT22;2202;50.866;12.750;2023-02-01T09:22:18;3.10;91.40
4376;DHT22;2202;50.866;12.750;2023-02-01T09:24:45;3.10;90.80
4376;DHT22;2202;50.866;12.750;2023-02-01T09:27:12;3.10;90.90
4376;DHT22;2202;50.866;12.750;2023-02-01T09:29:40;3.20;90.70
4376;DHT22;2202;50.866;12.750;2023-02-01T09:32:07;3.20;90.80
4376;DHT22;2202;50.866;12.750;2023-02-01T09:34:34;3.20;90.60
4376;DHT22;2202;50.866;12.750;2023-02-01T09:37:01;3.30;90.90
4376;DHT22;2202;50.866;12.750;2023-02-01T09:39:28;3.30;90.50
4376;DHT22;2202;50.866;12.750;2023-02-01T09:42:02;3.40;89.60
4376;DHT22;2202;50.866;12.750;2023-02-01T09:47:25;3.50;88.60
4376;DHT22;2202;50.866;12.750;2023-02-01T09:49:56;3.60;87.60
4376;DHT22;2202;50.866;12.750;2023-02-01T09:52:29;3.60;87.00
4376;DHT22;2202;50.866;12.750;2023-02-01T09:55:01;3.70;86.20
4376;DHT22;2202;50.866;12.750;2023-02-01T09:57:41;3.70;87.40
4376;DHT22;2202;50.866;12.750;2023-02-01T10:00:16;3.80;86.20
4376;DHT22;2202;50.866;12.750;2023-02-01T10:02:46;3.80;86.20
4376;DHT22;2202;50.866;12.750;2023-02-01T10:05:15;3.80;86.60
4376;DHT22;2202;50.866;12.750;2023-02-01T10:07:49;3.80;87.40
4376;DHT22;2202;50.866;12.750;2023-02-01T10:10:26;3.80;88.00
4376;DHT22;2202;50.866;12.750;2023-02-01T10:13:06;3.80;88.40
4376;DHT22;2202;50.866;12.750;2023-02-01T10:15:46;3.80;88.40
4376;DHT22;2202;50.866;12.750;2023-02-01T10:18:36;3.80;87.20
4376;DHT22;2202;50.866;12.750;2023-02-01T10:21:14;3.80;87.80
4376;DHT22;2202;50.866;12.750;2023-02-01T10:24:06;3.80;87.80
4376;DHT22;2202;50.866;12.750;2023-02-01T10:26:40;3.80;86.40
4376;DHT22;2202;50.866;12.750;2023-02-01T10:29:15;3.90;87.00
4376;DHT22;2202;50.866;12.750;2023-02-01T10:31:43;3.90;85.00
4376;DHT22;2202;50.866;12.750;2023-02-01T10:34:18;4.00;85.00
4376;DHT22;2202;50.866;12.750;2023-02-01T10:36:52;4.00;84.20
4376;DHT22;2202;50.866;12.750;2023-02-01T10:39:20;4.10;83.40
4376;DHT22;2202;50.866;12.750;2023-02-01T10:41:47;4.20;81.60
4376;DHT22;2202;50.866;12.750;2023-02-01T10:44:16;4.20;81.40
4376;DHT22;2202;50.866;12.750;2023-02-01T10:46:44;4.20;80.80
4376;DHT22;2202;50.866;12.750;2023-02-01T10:49:17;4.20;80.80
4376;DHT22;2202;50.866;12.750;2023-02-01T10:51:48;4.20;81.00
4376;DHT22;2202;50.866;12.750;2023-02-01T10:54:19;4.30;79.60
4376;DHT22;2202;50.866;12.750;2023-02-01T10:56:47;4.40;78.80
4376;DHT22;2202;50.866;12.750;2023-02-01T10:59:17;4.50;78.40
4376;DHT22;2202;50.866;12.750;2023-02-01T11:01:46;4.50;77.20
4376;DHT22;2202;50.866;12.750;2023-02-01T11:04:16;4.50;78.00
4376;DHT22;2202;50.866;12.750;2023-02-01T11:06:45;4.50;78.20
4376;DHT22;2202;50.866;12.750;2023-02-01T11:09:18;4.50;78.40
4376;DHT22;2202;50.866;12.750;2023-02-01T11:11:55;4.50;79.00
4376;DHT22;2202;50.866;12.750;2023-02-01T11:14:30;4.50;79.40
4376;DHT22;2202;50.866;12.750;2023-02-01T11:17:00;4.60;79.00
4376;DHT22;2202;50.866;12.750;2023-02-01T11:19:29;4.60;78.00
4376;DHT22;2202;50.866;12.750;2023-02-01T11:21:59;4.60;79.60
4376;DHT22;2202;50.866;12.750;2023-02-01T11:24:29;4.60;79.60
4376;DHT22;2202;50.866;12.750;2023-02-01T11:26:57;4.50;80.00
4376;DHT22;2202;50.866;12.750;2023-02-01T11:29:24;4.50;80.80
4376;DHT22;2202;50.866;12.750;2023-02-01T11:31:56;4.60;80.40
4376;DHT22;2202;50.866;12.750;2023-02-01T11:34:26;4.60;79.80
4376;DHT22;2202;50.866;12.750;2023-02-01T11:36:59;4.60;79.40
4376;DHT22;2202;50.866;12.750;2023-02-01T11:39:30;4.50;79.80
4376;DHT22;2202;50.866;12.750;2023-02-01T11:42:01;4.60;78.00
4376;DHT22;2202;50.866;12.750;2023-02-01T11:44:33;4.60;78.20
4376;DHT22;2202;50.866;12.750;2023-02-01T11:47:21;4.60;77.80
4376;DHT22;2202;50.866;12.750;2023-02-01T11:49:49;4.60;78.40
4376;DHT22;2202;50.866;12.750;2023-02-01T11:52:38;4.80;78.20
4376;DHT22;2202;50.866;12.750;2023-02-01T11:55:17;4.80;77.20
4376;DHT22;2202;50.866;12.750;2023-02-01T11:57:59;4.80;76.80
4376;DHT22;2202;50.866;12.750;2023-02-01T12:00:45;4.80;77.00
4376;DHT22;2202;50.866;12.750;2023-02-01T12:03:29;4.90;76.60
4376;DHT22;2202;50.866;12.750;2023-02-01T12:06:05;4.90;75.60
4376;DHT22;2202;50.866;12.750;2023-02-01T12:09:11;4.90;75.60
4376;DHT22;2202;50.866;12.750;2023-02-01T12:11:46;5.00;75.00
4376;DHT22;2202;50.866;12.750;2023-02-01T12:14:24;5.00;74.40
4376;DHT22;2202;50.866;12.750;2023-02-01T12:17:21;4.90;73.80
4376;DHT22;2202;50.866;12.750;2023-02-01T12:23:04;4.90;74.60
4376;DHT22;2202;50.866;12.750;2023-02-01T12:25:51;4.90;74.60
4376;DHT22;2202;50.866;12.750;2023-02-01T12:28:45;4.90;74.80
4376;DHT22;2202;50.866;12.750;2023-02-01T12:34:50;5.00;73.00
4376;DHT22;2202;50.866;12.750;2023-02-01T12:37:27;5.10;72.80
4376;DHT22;2202;50.866;12.750;2023-02-01T12:40:02;5.10;71.20
4376;DHT22;2202;50.866;12.750;2023-02-01T12:42:37;5.00;69.80
4376;DHT22;2202;50.866;12.750;2023-02-01T12:45:12;5.10;71.20
4376;DHT22;2202;50.866;12.750;2023-02-01T12:47:44;5.10;71.20
4376;DHT22;2202;50.866;12.750;2023-02-01T12:50:20;5.00;71.20
4376;DHT22;2202;50.866;12.750;2023-02-01T12:52:49;5.00;71.80
4376;DHT22;2202;50.866;12.750;2023-02-01T12:55:20;5.00;71.20
4376;DHT22;2202;50.866;12.750;2023-02-01T12:57:51;5.10;71.00
4376;DHT22;2202;50.866;12.750;2023-02-01T13:00:27;5.00;71.40
4376;DHT22;2202;50.866;12.750;2023-02-01T13:03:01;5.00;70.60
4376;DHT22;2202;50.866;12.750;2023-02-01T13:05:36;5.00;71.40
4376;DHT22;2202;50.866;12.750;2023-02-01T13:08:09;5.00;71.40
4376;DHT22;2202;50.866;12.750;2023-02-01T13:10:39;5.00;70.40
4376;DHT22;2202;50.866;12.750;2023-02-01T13:13:14;5.00;71.80
4376;DHT22;2202;50.866;12.750;2023-02-01T13:15:45;4.90;70.40
4376;DHT22;2202;50.866;12.750;2023-02-01T13:18:15;4.90;70.20
4376;DHT22;2202;50.866;12.750;2023-02-01T13:20:49;4.90;70.20
4376;DHT22;2202;50.866;12.750;2023-02-01T13:23:23;5.00;71.00
4376;DHT22;2202;50.866;12.750;2023-02-01T13:25:53;5.00;70.60
4376;DHT22;2202;50.866;12.750;2023-02-01T13:28:25;5.00;71.40
4376;DHT22;2202;50.866;12.750;2023-02-01T13:31:04;5.00;72.00
4376;DHT22;2202;50.866;12.750;2023-02-01T13:33:47;4.90;72.00
4376;DHT22;2202;50.866;12.750;2023-02-01T13:36:41;4.90;72.80
4376;DHT22;2202;50.866;12.750;2023-02-01T13:39:24;4.90;71.00
4376;DHT22;2202;50.866;12.750;2023-02-01T13:41:57;4.90;70.60
4376;DHT22;2202;50.866;12.750;2023-02-01T13:44:30;4.90;71.40
4376;DHT22;2202;50.866;12.750;2023-02-01T13:47:01;4.90;72.20
4376;DHT22;2202;50.866;12.750;2023-02-01T13:49:31;4.90;72.20
4376;DHT22;2202;50.866;12.750;2023-02-01T13:51:59;4.90;73.20
4376;DHT22;2202;50.866;12.750;2023-02-01T13:54:29;4.80;73.80
4376;DHT22;2202;50.866;12.750;2023-02-01T13:56:58;4.80;73.60
4376;DHT22;2202;50.866;12.750;2023-02-01T14:06:14;4.70;74.00
4376;DHT22;2202;50.866;12.750;2023-02-01T14:11:39;4.70;73.20
4376;DHT22;2202;50.866;12.750;2023-02-01T14:17:34;4.60;74.80
4376;DHT22;2202;50.866;12.750;2023-02-01T14:23:30;4.60;74.60
4376;DHT22;2202;50.866;12.750;2023-02-01T14:26:16;4.70;75.00
4376;DHT22;2202;50.866;12.750;2023-02-01T14:28:47;4.70;73.60
4376;DHT22;2202;50.866;12.750;2023-02-01T14:31:37;4.60;74.00
4376;DHT22;2202;50.866;12.750;2023-02-01T14:34:13;4.60;75.20
4376;DHT22;2202;50.866;12.750;2023-02-01T14:36:44;4.70;74.80
4376;DHT22;2202;50.866;12.750;2023-02-01T14:39:26;4.60;75.00
4376;DHT22;2202;50.866;12.750;2023-02-01T14:41:56;4.60;75.40
4376;DHT22;2202;50.866;12.750;2023-02-01T14:44:32;4.60;74.80
4376;DHT22;2202;50.866;12.750;2023-02-01T14:49:52;4.50;76.00
4376;DHT22;2202;50.866;12.750;2023-02-01T14:52:23;4.50;76.20
4376;DHT22;2202;50.866;12.750;2023-02-01T14:54:54;4.50;76.20
4376;DHT22;2202;50.866;12.750;2023-02-01T14:57:25;4.50;75.60
4376;DHT22;2202;50.866;12.750;2023-02-01T15:00:00;4.50;76.80
4376;DHT22;2202;50.866;12.750;2023-02-01T15:02:34;4.50;76.80
4376;DHT22;2202;50.866;12.750;2023-02-01T15:05:23;4.50;76.60
4376;DHT22;2202;50.866;12.750;2023-02-01T15:07:51;4.40;77.00
4376;DHT22;2202;50.866;12.750;2023-02-01T15:10:21;4.50;77.00
4376;DHT22;2202;50.866;12.750;2023-02-01T15:12:48;4.40;77.20
4376;DHT22;2202;50.866;12.750;2023-02-01T15:15:18;4.40;77.00
4376;DHT22;2202;50.866;12.750;2023-02-01T15:17:52;4.40;76.40
4376;DHT22;2202;50.866;12.750;2023-02-01T15:20:22;4.50;76.20
4376;DHT22;2202;50.866;12.750;2023-02-01T15:22:53;4.40;77.40
4376;DHT22;2202;50.866;12.750;2023-02-01T15:25:24;4.40;77.20
4376;DHT22;2202;50.866;12.750;2023-02-01T15:27:51;4.40;76.80
4376;DHT22;2202;50.866;12.750;2023-02-01T15:30:22;4.40;76.40
4376;DHT22;2202;50.866;12.750;2023-02-01T15:32:50;4.40;76.20
4376;DHT22;2202;50.866;12.750;2023-02-01T15:35:38;4.40;77.00
4376;DHT22;2202;50.866;12.750;2023-02-01T15:38:37;4.40;76.40
4376;DHT22;2202;50.866;12.750;2023-02-01T15:41:08;4.40;77.20
4376;DHT22;2202;50.866;12.750;2023-02-01T15:43:37;4.40;75.80
4376;DHT22;2202;50.866;12.750;2023-02-01T15:46:08;4.40;76.00
4376;DHT22;2202;50.866;12.750;2023-02-01T15:48:39;4.40;75.80
4376;DHT22;2202;50.866;12.750;2023-02-01T15:51:15;4.40;76.20
4376;DHT22;2202;50.866;12.750;2023-02-01T15:53:52;4.40;75.00
4376;DHT22;2202;50.866;12.750;2023-02-01T15:56:24;4.50;74.20
4376;DHT22;2202;50.866;12.750;2023-02-01T15:58:54;4.50;73.60
4376;DHT22;2202;50.866;12.750;2023-02-01T16:01:21;4.50;73.60
4376;DHT22;2202;50.866;12.750;2023-02-01T16:03:48;4.50;73.60
4376;DHT22;2202;50.866;12.750;2023-02-01T16:06:30;4.50;73.40
4376;DHT22;2202;50.866;12.750;2023-02-01T16:09:03;4.50;72.80
4376;DHT22;2202;50.866;12.750;2023-02-01T16:11:46;4.50;73.00
4376;DHT22;2202;50.866;12.750;2023-02-01T16:14:15;4.50;72.20
4376;DHT22;2202;50.866;12.750;2023-02-01T16:16:42;4.50;72.80
4376;DHT22;2202;50.866;12.750;2023-02-01T16:19:09;4.60;72.00
4376;DHT22;2202;50.866;12.750;2023-02-01T16:21:36;4.60;72.20
4376;DHT22;2202;50.866;12.750;2023-02-01T16:24:03;4.60;71.80
4376;DHT22;2202;50.866;12.750;2023-02-01T16:26:30;4.60;72.20
4376;DHT22;2202;50.866;12.750;2023-02-01T16:28:59;4.50;72.40
4376;DHT22;2202;50.866;12.750;2023-02-01T16:31:30;4.50;73.40
4376;DHT22;2202;50.866;12.750;2023-02-01T16:33:57;4.50;73.60
4376;DHT22;2202;50.866;12.750;2023-02-01T16:36:24;4.50;73.60
4376;DHT22;2202;50.866;12.750;2023-02-01T16:38:52;4.60;74.00
4376;DHT22;2202;50.866;12.750;2023-02-01T16:41:21;4.50;74.40
4376;DHT22;2202;50.866;12.750;2023-02-01T16:43:50;4.50;75.20
4376;DHT22;2202;50.866;12.750;2023-02-01T16:46:20;4.50;75.80
4376;DHT22;2202;50.866;12.750;2023-02-01T16:48:53;4.50;76.80
4376;DHT22;2202;50.866;12.750;2023-02-01T16:51:20;4.40;78.20
4376;DHT22;2202;50.866;12.750;2023-02-01T16:53:47;4.30;80.20
4376;DHT22;2202;50.866;12.750;2023-02-01T16:56:16;4.20;82.60
4376;DHT22;2202;50.866;12.750;2023-02-01T16:58:44;4.00;85.80
4376;DHT22;2202;50.866;12.750;2023-02-01T17:01:13;3.80;88.60
4376;DHT22;2202;50.866;12.750;2023-02-01T17:03:41;2.30;91.90